sensor_id;sensor_type;location;lat;lon;timestamp;pressure;altitude;pressure_sealevel;temperature;humidity
69402;BME280;56589;51.992;5.924;2023-04-07T00:00:32;100833.38;;;8.24;83.13
69402;BME280;56589;51.992;5.924;2023-04-07T00:03:01;100838.72;;;8.23;83.39
69402;BME280;56589;51.992;5.924;2023-04-07T00:05:26;100843.94;;;8.23;83.20
69402;BME280;56589;51.992;5.924;2023-04-07T00:07:52;100844.78;;;8.23;83.46
69402;BME280;56589;51.992;5.924;2023-04-07T00:10:18;100845.78;;;8.21;83.88
69402;BME280;56589;51.992;5.924;2023-04-07T00:12:44;100842.50;;;8.17;84.14
69402;BME280;56589;51.992;5.924;2023-04-07T00:15:10;100839.03;;;8.17;83.54
69402;BME280;56589;51.992;5.924;2023-04-07T00:17:36;100847.72;;;8.17;83.47
69402;BME280;56589;51.992;5.924;2023-04-07T00:20:07;100845.19;;;8.15;83.68
69402;BME280;56589;51.992;5.924;2023-04-07T00:22:33;100844.34;;;8.15;83.67
69402;BME280;56589;51.992;5.924;2023-04-07T00:24:59;100847.03;;;8.13;83.70
69402;BME280;56589;51.992;5.924;2023-04-07T00:27:25;100847.13;;;8.12;84.15
69402;BME280;56589;51.992;5.924;2023-04-07T00:29:51;100844.59;;;8.10;84.11
69402;BME280;56589;51.992;5.924;2023-04-07T00:32:17;100847.22;;;8.10;83.84
69402;BME280;56589;51.992;5.924;2023-04-07T00:34:43;100854.22;;;8.10;83.90
69402;BME280;56589;51.992;5.924;2023-04-07T00:37:12;100856.91;;;8.08;84.21
69402;BME280;56589;51.992;5.924;2023-04-07T00:39:38;100849.06;;;8.08;84.09
69402;BME280;56589;51.992;5.924;2023-04-07T00:42:04;100852.66;;;8.06;84.33
69402;BME280;56589;51.992;5.924;2023-04-07T00:44:30;100856.22;;;8.05;84.53
69402;BME280;56589;51.992;5.924;2023-04-07T00:46:56;100850.22;;;8.03;84.47
69402;BME280;56589;51.992;5.924;2023-04-07T00:49:22;100851.81;;;8.05;83.97
69402;BME280;56589;51.992;5.924;2023-04-07T00:51:48;100847.44;;;8.06;84.10
69402;BME280;56589;51.992;5.924;2023-04-07T00:54:17;100846.59;;;8.05;83.92
69402;BME280;56589;51.992;5.924;2023-04-07T00:56:43;100845.75;;;8.05;84.15
69402;BME280;56589;51.992;5.924;2023-04-07T00:59:09;100844.91;;;8.04;84.19
69402;BME280;56589;51.992;5.924;2023-04-07T01:01:41;100847.53;;;8.04;83.94
69402;BME280;56589;51.992;5.924;2023-04-07T01:04:19;100843.91;;;8.07;83.88
69402;BME280;56589;51.992;5.924;2023-04-07T01:06:53;100849.22;;;8.05;83.91
69402;BME280;56589;51.992;5.924;2023-04-07T01:09:30;100836.31;;;8.02;84.07
69402;BME280;56589;51.992;5.924;2023-04-07T01:12:06;100843.38;;;8.00;84.30
69402;BME280;56589;51.992;5.924;2023-04-07T01:14:44;100844.41;;;7.98;83.92
69402;BME280;56589;51.992;5.924;2023-04-07T01:17:15;100846.16;;;7.97;84.02
69402;BME280;56589;51.992;5.924;2023-04-07T01:19:46;100847.84;;;7.98;84.31
69402;BME280;56589;51.992;5.924;2023-04-07T01:22:22;100845.16;;;8.00;84.29
69402;BME280;56589;51.992;5.924;2023-04-07T01:25:05;100842.53;;;8.00;84.08
69402;BME280;56589;51.992;5.924;2023-04-07T01:27:59;100844.31;;;7.99;84.04
69402;BME280;56589;51.992;5.924;2023-04-07T01:30:42;100843.56;;;7.97;84.18
69402;BME280;56589;51.992;5.924;2023-04-07T01:33:10;100846.16;;;7.97;83.98
69402;BME280;56589;51.992;5.924;2023-04-07T01:35:40;100853.16;;;7.97;84.21
69402;BME280;56589;51.992;5.924;2023-04-07T01:38:08;100848.78;;;7.97;84.11
69402;BME280;56589;51.992;5.924;2023-04-07T01:40:36;100847.25;;;7.93;83.89
69402;BME280;56589;51.992;5.924;2023-04-07T01:43:05;100847.25;;;7.93;84.19
69402;BME280;56589;51.992;5.924;2023-04-07T01:45:33;100840.31;;;7.92;83.75
69402;BME280;56589;51.992;5.924;2023-04-07T01:48:05;100842.19;;;7.90;84.12
69402;BME280;56589;51.992;5.924;2023-04-07T01:50:33;100849.25;;;7.88;83.90
69402;BME280;56589;51.992;5.924;2023-04-07T01:52:59;100852.97;;;7.84;84.21
69402;BME280;56589;51.992;5.924;2023-04-07T01:55:26;100854.69;;;7.83;84.41
69402;BME280;56589;51.992;5.924;2023-04-07T01:57:53;100849.41;;;7.85;84.16
69402;BME280;56589;51.992;5.924;2023-04-07T02:00:18;100850.34;;;7.84;83.95
69402;BME280;56589;51.992;5.924;2023-04-07T02:02:48;100852.09;;;7.83;84.13
69402;BME280;56589;51.992;5.924;2023-04-07T02:05:23;100859.09;;;7.83;84.40
69402;BME280;56589;51.992;5.924;2023-04-07T02:07:52;100847.97;;;7.79;84.34
69402;BME280;56589;51.992;5.924;2023-04-07T02:10:23;100852.34;;;7.79;84.20
69402;BME280;56589;51.992;5.924;2023-04-07T02:12:51;100860.25;;;7.77;83.88
69402;BME280;56589;51.992;5.924;2023-04-07T02:15:20;100854.16;;;7.77;83.74
69402;BME280;56589;51.992;5.924;2023-04-07T02:17:51;100866.34;;;7.78;83.64
69402;BME280;56589;51.992;5.924;2023-04-07T02:20:24;100864.41;;;7.81;84.03
69402;BME280;56589;51.992;5.924;2023-04-07T02:22:52;100868.66;;;7.84;83.79
69402;BME280;56589;51.992;5.924;2023-04-07T02:25:23;100867.78;;;7.83;83.79
69402;BME280;56589;51.992;5.924;2023-04-07T02:27:51;100866.16;;;7.81;83.74
69402;BME280;56589;51.992;5.924;2023-04-07T02:30:18;100866.25;;;7.79;83.65
69402;BME280;56589;51.992;5.924;2023-04-07T02:32:44;100862.00;;;7.77;83.93
69402;BME280;56589;51.992;5.924;2023-04-07T02:35:10;100861.03;;;7.79;83.69
69402;BME280;56589;51.992;5.924;2023-04-07T02:37:38;100868.88;;;7.79;83.61
69402;BME280;56589;51.992;5.924;2023-04-07T02:40:05;100868.97;;;7.78;83.71
69402;BME280;56589;51.992;5.924;2023-04-07T02:42:32;100870.78;;;7.76;83.50
69402;BME280;56589;51.992;5.924;2023-04-07T02:44:58;100866.56;;;7.73;83.58
69402;BME280;56589;51.992;5.924;2023-04-07T02:47:24;100863.16;;;7.71;83.83
69402;BME280;56589;51.992;5.924;2023-04-07T02:49:50;100863.16;;;7.71;83.84
69402;BME280;56589;51.992;5.924;2023-04-07T02:52:16;100871.72;;;7.75;83.66
69402;BME280;56589;51.992;5.924;2023-04-07T02:54:47;100874.31;;;7.75;83.58
69402;BME280;56589;51.992;5.924;2023-04-07T02:57:14;100874.31;;;7.75;83.42
69402;BME280;56589;51.992;5.924;2023-04-07T02:59:40;100868.25;;;7.74;83.59
69402;BME280;56589;51.992;5.924;2023-04-07T03:02:08;100884.88;;;7.73;83.83
69402;BME280;56589;51.992;5.924;2023-04-07T03:04:34;100883.31;;;7.69;83.62
69402;BME280;56589;51.992;5.924;2023-04-07T03:07:00;100882.47;;;7.69;83.82
69402;BME280;56589;51.992;5.924;2023-04-07T03:09:26;100880.09;;;7.64;83.40
69402;BME280;56589;51.992;5.924;2023-04-07T03:11:54;100889.59;;;7.65;83.85
69402;BME280;56589;51.992;5.924;2023-04-07T03:14:20;100888.63;;;7.68;83.42
69402;BME280;56589;51.992;5.924;2023-04-07T03:16:46;100883.22;;;7.71;83.44
69402;BME280;56589;51.992;5.924;2023-04-07T03:19:12;100890.09;;;7.73;83.81
69402;BME280;56589;51.992;5.924;2023-04-07T03:21:38;100886.47;;;7.76;83.54
69402;BME280;56589;51.992;5.924;2023-04-07T03:24:05;100886.63;;;7.73;83.71
69402;BME280;56589;51.992;5.924;2023-04-07T03:26:31;100886.63;;;7.73;83.36
69402;BME280;56589;51.992;5.924;2023-04-07T03:29:00;100878.78;;;7.73;83.19
69402;BME280;56589;51.992;5.924;2023-04-07T03:31:25;100886.56;;;7.74;83.46
69402;BME280;56589;51.992;5.924;2023-04-07T03:33:51;100883.09;;;7.74;83.37
69402;BME280;56589;51.992;5.924;2023-04-07T03:36:17;100883.94;;;7.74;83.64
69402;BME280;56589;51.992;5.924;2023-04-07T03:38:43;100876.94;;;7.75;83.61
69402;BME280;56589;51.992;5.924;2023-04-07T03:41:10;100884.78;;;7.75;83.63
69402;BME280;56589;51.992;5.924;2023-04-07T03:43:36;100880.41;;;7.75;83.67
69402;BME280;56589;51.992;5.924;2023-04-07T03:46:05;100882.06;;;7.76;83.19
69402;BME280;56589;51.992;5.924;2023-04-07T03:48:31;100882.91;;;7.77;83.22
69402;BME280;56589;51.992;5.924;2023-04-07T03:50:56;100889.88;;;7.78;83.32
69402;BME280;56589;51.992;5.924;2023-04-07T03:53:22;100887.16;;;7.79;83.26
69402;BME280;56589;51.992;5.924;2023-04-07T03:55:48;100891.59;;;7.77;83.72
69402;BME280;56589;51.992;5.924;2023-04-07T03:58:14;100884.63;;;7.78;83.71
69402;BME280;56589;51.992;5.924;2023-04-07T04:00:40;100887.41;;;7.75;83.75
69402;BME280;56589;51.992;5.924;2023-04-07T04:03:08;100890.00;;;7.75;83.25
69402;BME280;56589;51.992;5.924;2023-04-07T04:05:34;100896.91;;;7.76;83.65
69402;BME280;56589;51.992;5.924;2023-04-07T04:08:00;100896.78;;;7.79;83.28
69402;BME280;56589;51.992;5.924;2023-04-07T04:10:26;100899.31;;;7.80;83.20
69402;BME280;56589;51.992;5.924;2023-04-07T04:12:52;100895.75;;;7.81;83.45
69402;BME280;56589;51.992;5.924;2023-04-07T04:15:18;100897.41;;;7.84;83.58
69402;BME280;56589;51.992;5.924;2023-04-07T04:17:43;100897.41;;;7.84;83.68
69402;BME280;56589;51.992;5.924;2023-04-07T04:20:21;100898.91;;;7.88;83.16
69402;BME280;56589;51.992;5.924;2023-04-07T04:22:49;100902.53;;;7.85;83.53
69402;BME280;56589;51.992;5.924;2023-04-07T04:25:15;100902.63;;;7.84;83.24
69402;BME280;56589;51.992;5.924;2023-04-07T04:27:44;100901.75;;;7.83;83.19
69402;BME280;56589;51.992;5.924;2023-04-07T04:30:10;100900.84;;;7.84;83.63
69402;BME280;56589;51.992;5.924;2023-04-07T04:32:36;100907.78;;;7.85;83.57
69402;BME280;56589;51.992;5.924;2023-04-07T04:35:02;100906.22;;;7.81;83.65
69402;BME280;56589;51.992;5.924;2023-04-07T04:37:30;100908.75;;;7.83;83.29
69402;BME280;56589;51.992;5.924;2023-04-07T04:39:56;100903.53;;;7.83;83.53
69402;BME280;56589;51.992;5.924;2023-04-07T04:42:22;100913.00;;;7.85;83.67
69402;BME280;56589;51.992;5.924;2023-04-07T04:44:48;100916.53;;;7.84;83.27
69402;BME280;56589;51.992;5.924;2023-04-07T04:47:13;100915.53;;;7.87;83.65
69402;BME280;56589;51.992;5.924;2023-04-07T04:49:39;100926.06;;;7.85;83.37
69402;BME280;56589;51.992;5.924;2023-04-07T04:52:05;100920.75;;;7.87;83.26
69402;BME280;56589;51.992;5.924;2023-04-07T04:54:33;100922.44;;;7.88;83.32
69402;BME280;56589;51.992;5.924;2023-04-07T04:56:59;100922.44;;;7.88;83.32
69402;BME280;56589;51.992;5.924;2023-04-07T04:59:25;100928.47;;;7.90;83.23
69402;BME280;56589;51.992;5.924;2023-04-07T05:01:51;100927.66;;;7.88;83.52
69402;BME280;56589;51.992;5.924;2023-04-07T05:04:16;100931.97;;;7.89;83.37
69402;BME280;56589;51.992;5.924;2023-04-07T05:06:42;100931.06;;;7.90;83.40
69402;BME280;56589;51.992;5.924;2023-04-07T05:09:08;100933.69;;;7.90;83.06
69402;BME280;56589;51.992;5.924;2023-04-07T05:11:37;100935.44;;;7.89;83.12
69402;BME280;56589;51.992;5.924;2023-04-07T05:14:04;100931.97;;;7.89;83.23
69402;BME280;56589;51.992;5.924;2023-04-07T05:16:30;100940.75;;;7.88;83.43
69402;BME280;56589;51.992;5.924;2023-04-07T05:18:56;100944.13;;;7.90;83.58
69402;BME280;56589;51.992;5.924;2023-04-07T05:21:22;100938.97;;;7.88;83.13
69402;BME280;56589;51.992;5.924;2023-04-07T05:23:47;100945.97;;;7.88;82.99
69402;BME280;56589;51.992;5.924;2023-04-07T05:26:13;100945.88;;;7.89;83.02
69402;BME280;56589;51.992;5.924;2023-04-07T05:28:42;100945.88;;;7.89;83.56
69402;BME280;56589;51.992;5.924;2023-04-07T05:31:07;100946.97;;;7.85;83.22
69402;BME280;56589;51.992;5.924;2023-04-07T05:33:33;100943.44;;;7.86;83.39
69402;BME280;56589;51.992;5.924;2023-04-07T05:35:59;100948.56;;;7.88;83.44
69402;BME280;56589;51.992;5.924;2023-04-07T05:38:25;100949.41;;;7.88;83.46
69402;BME280;56589;51.992;5.924;2023-04-07T05:40:51;100952.81;;;7.91;83.33
69402;BME280;56589;51.992;5.924;2023-04-07T05:43:16;100951.97;;;7.90;83.34
69402;BME280;56589;51.992;5.924;2023-04-07T05:45:47;100951.09;;;7.89;83.20
69402;BME280;56589;51.992;5.924;2023-04-07T05:48:13;100953.66;;;7.91;82.82
69402;BME280;56589;51.992;5.924;2023-04-07T05:50:39;100948.44;;;7.91;83.25
69402;BME280;56589;51.992;5.924;2023-04-07T05:53:05;100952.66;;;7.94;82.79
69402;BME280;56589;51.992;5.924;2023-04-07T05:55:31;100958.66;;;7.96;82.90
69402;BME280;56589;51.992;5.924;2023-04-07T05:57:57;100956.97;;;7.95;82.84
69402;BME280;56589;51.992;5.924;2023-04-07T06:00:22;100959.56;;;7.95;82.80
69402;BME280;56589;51.992;5.924;2023-04-07T06:02:51;100959.53;;;7.96;83.34
69402;BME280;56589;51.992;5.924;2023-04-07T06:05:17;100968.13;;;7.98;82.98
69402;BME280;56589;51.992;5.924;2023-04-07T06:07:42;100967.06;;;8.02;83.10
69402;BME280;56589;51.992;5.924;2023-04-07T06:10:08;100970.44;;;8.04;83.00
69402;BME280;56589;51.992;5.924;2023-04-07T06:12:34;100970.50;;;8.03;83.01
69402;BME280;56589;51.992;5.924;2023-04-07T06:15:00;100975.78;;;8.01;83.08
69402;BME280;56589;51.992;5.924;2023-04-07T06:17:25;100980.19;;;8.01;83.27
69402;BME280;56589;51.992;5.924;2023-04-07T06:19:54;100979.25;;;8.02;82.74
69402;BME280;56589;51.992;5.924;2023-04-07T06:22:20;100978.34;;;8.03;83.10
69402;BME280;56589;51.992;5.924;2023-04-07T06:24:45;100979.19;;;8.03;82.76
69402;BME280;56589;51.992;5.924;2023-04-07T06:27:11;100981.94;;;8.00;83.20
69402;BME280;56589;51.992;5.924;2023-04-07T06:29:37;100973.34;;;7.98;82.76
69402;BME280;56589;51.992;5.924;2023-04-07T06:32:03;100978.50;;;8.00;83.04
69402;BME280;56589;51.992;5.924;2023-04-07T06:34:29;100981.19;;;7.98;82.73
69402;BME280;56589;51.992;5.924;2023-04-07T06:36:57;100987.25;;;7.99;83.13
69402;BME280;56589;51.992;5.924;2023-04-07T06:39:25;100987.25;;;7.99;83.00
69402;BME280;56589;51.992;5.924;2023-04-07T06:41:54;100987.25;;;7.99;83.25
69402;BME280;56589;51.992;5.924;2023-04-07T06:44:20;100993.19;;;8.02;83.24
69402;BME280;56589;51.992;5.924;2023-04-07T06:46:45;100991.44;;;8.03;83.47
69402;BME280;56589;51.992;5.924;2023-04-07T06:49:11;100993.78;;;8.07;83.20
69402;BME280;56589;51.992;5.924;2023-04-07T06:51:37;101001.41;;;8.12;83.03
69402;BME280;56589;51.992;5.924;2023-04-07T06:54:05;100999.41;;;8.17;83.19
69402;BME280;56589;51.992;5.924;2023-04-07T06:56:32;100994.72;;;8.24;83.25
69402;BME280;56589;51.992;5.924;2023-04-07T06:58:58;101003.09;;;8.30;83.11
69402;BME280;56589;51.992;5.924;2023-04-07T07:01:23;101004.63;;;8.34;83.22
69402;BME280;56589;51.992;5.924;2023-04-07T07:03:49;101008.00;;;8.36;83.21
69402;BME280;56589;51.992;5.924;2023-04-07T07:06:15;101013.88;;;8.41;82.88
69402;BME280;56589;51.992;5.924;2023-04-07T07:08:41;101013.78;;;8.43;83.08
69402;BME280;56589;51.992;5.924;2023-04-07T07:11:09;101010.09;;;8.47;82.87
69402;BME280;56589;51.992;5.924;2023-04-07T07:13:35;101018.56;;;8.52;83.29
69402;BME280;56589;51.992;5.924;2023-04-07T07:16:01;101020.31;;;8.52;82.99
69402;BME280;56589;51.992;5.924;2023-04-07T07:18:27;101018.28;;;8.57;83.26
69402;BME280;56589;51.992;5.924;2023-04-07T07:20:53;101020.53;;;8.64;83.13
69402;BME280;56589;51.992;5.924;2023-04-07T07:23:19;101026.34;;;8.69;83.05
69402;BME280;56589;51.992;5.924;2023-04-07T07:25:45;101027.97;;;8.72;82.77
69402;BME280;56589;51.992;5.924;2023-04-07T07:28:13;101033.72;;;8.79;82.93
69402;BME280;56589;51.992;5.924;2023-04-07T07:30:39;101034.50;;;8.81;82.55
69402;BME280;56589;51.992;5.924;2023-04-07T07:33:05;101038.03;;;8.80;82.38
69402;BME280;56589;51.992;5.924;2023-04-07T07:35:32;101037.94;;;8.81;82.40
69402;BME280;56589;51.992;5.924;2023-04-07T07:37:58;101043.34;;;8.78;81.75
69402;BME280;56589;51.992;5.924;2023-04-07T07:40:24;101042.53;;;8.78;82.35
69402;BME280;56589;51.992;5.924;2023-04-07T07:42:49;101042.53;;;8.78;82.20
69402;BME280;56589;51.992;5.924;2023-04-07T07:45:18;101038.78;;;8.82;82.39
69402;BME280;56589;51.992;5.924;2023-04-07T07:47:44;101039.34;;;8.88;81.84
69402;BME280;56589;51.992;5.924;2023-04-07T07:50:10;101043.00;;;9.02;82.48
69402;BME280;56589;51.992;5.924;2023-04-07T07:52:36;101043.34;;;9.11;82.06
69402;BME280;56589;51.992;5.924;2023-04-07T07:55:02;101045.31;;;9.23;82.26
69402;BME280;56589;51.992;5.924;2023-04-07T07:57:28;101050.69;;;9.38;81.50
69402;BME280;56589;51.992;5.924;2023-04-07T07:59:54;101052.03;;;9.45;81.46
69402;BME280;56589;51.992;5.924;2023-04-07T08:02:22;101051.25;;;9.43;80.62
69402;BME280;56589;51.992;5.924;2023-04-07T08:04:48;101054.56;;;9.46;81.11
69402;BME280;56589;51.992;5.924;2023-04-07T08:07:14;101053.53;;;9.49;80.83
69402;BME280;56589;51.992;5.924;2023-04-07T08:09:40;101063.66;;;9.55;80.43
69402;BME280;56589;51.992;5.924;2023-04-07T08:12:05;101059.22;;;9.57;80.51
69402;BME280;56589;51.992;5.924;2023-04-07T08:14:31;101061.66;;;9.60;79.99
69402;BME280;56589;51.992;5.924;2023-04-07T08:16:57;101064.03;;;9.65;80.26
69402;BME280;56589;51.992;5.924;2023-04-07T08:19:25;101068.22;;;9.67;79.53
69402;BME280;56589;51.992;5.924;2023-04-07T08:21:51;101080.59;;;9.65;80.00
69402;BME280;56589;51.992;5.924;2023-04-07T08:24:17;101076.28;;;9.64;79.85
69402;BME280;56589;51.992;5.924;2023-04-07T08:26:43;101071.38;;;9.58;79.18
69402;BME280;56589;51.992;5.924;2023-04-07T08:29:08;101085.50;;;9.56;79.58
69402;BME280;56589;51.992;5.924;2023-04-07T08:31:34;101080.53;;;9.51;79.61
69402;BME280;56589;51.992;5.924;2023-04-07T08:34:00;101085.16;;;9.46;79.08
69402;BME280;56589;51.992;5.924;2023-04-07T08:36:28;101082.88;;;9.40;79.41
69402;BME280;56589;51.992;5.924;2023-04-07T08:38:54;101090.13;;;9.35;79.70
69402;BME280;56589;51.992;5.924;2023-04-07T08:41:25;101088.53;;;9.32;79.92
69402;BME280;56589;51.992;5.924;2023-04-07T08:43:56;101093.69;;;9.34;80.09
69402;BME280;56589;51.992;5.924;2023-04-07T08:46:24;101094.19;;;9.40;80.05
69402;BME280;56589;51.992;5.924;2023-04-07T08:48:51;101098.50;;;9.41;79.93
69402;BME280;56589;51.992;5.924;2023-04-07T08:51:27;101105.63;;;9.39;79.69
69402;BME280;56589;51.992;5.924;2023-04-07T08:54:11;101110.94;;;9.38;80.05
69402;BME280;56589;51.992;5.924;2023-04-07T08:56:39;101110.09;;;9.37;79.93
69402;BME280;56589;51.992;5.924;2023-04-07T08:59:07;101103.25;;;9.35;79.95
69402;BME280;56589;51.992;5.924;2023-04-07T09:01:35;101108.38;;;9.36;80.16
69402;BME280;56589;51.992;5.924;2023-04-07T09:04:01;101110.09;;;9.37;79.95
69402;BME280;56589;51.992;5.924;2023-04-07T09:06:31;101108.25;;;9.39;79.80
69402;BME280;56589;51.992;5.924;2023-04-07T09:08:58;101108.16;;;9.41;80.19
69402;BME280;56589;51.992;5.924;2023-04-07T09:11:25;101114.75;;;9.48;80.10
69402;BME280;56589;51.992;5.924;2023-04-07T09:13:51;101115.25;;;9.55;80.54
69402;BME280;56589;51.992;5.924;2023-04-07T09:16:17;101111.38;;;9.62;80.42
69402;BME280;56589;51.992;5.924;2023-04-07T09:18:44;101118.88;;;9.68;79.74
69402;BME280;56589;51.992;5.924;2023-04-07T09:21:10;101116.97;;;9.71;79.91
69402;BME280;56589;51.992;5.924;2023-04-07T09:23:40;101120.44;;;9.72;79.49
69402;BME280;56589;51.992;5.924;2023-04-07T09:26:22;101126.41;;;9.74;80.00
69402;BME280;56589;51.992;5.924;2023-04-07T09:28:52;101126.78;;;9.84;79.98
69402;BME280;56589;51.992;5.924;2023-04-07T09:31:19;101126.28;;;9.93;79.30
69402;BME280;56589;51.992;5.924;2023-04-07T09:33:44;101124.81;;;10.03;79.82
69402;BME280;56589;51.992;5.924;2023-04-07T09:36:10;101125.31;;;10.10;79.19
69402;BME280;56589;51.992;5.924;2023-04-07T09:38:40;101123.47;;;10.12;78.93
69402;BME280;56589;51.992;5.924;2023-04-07T09:41:08;101125.41;;;10.08;78.46
69402;BME280;56589;51.992;5.924;2023-04-07T09:43:37;101130.06;;;10.03;78.54
69402;BME280;56589;51.992;5.924;2023-04-07T09:46:12;101132.53;;;9.90;78.21
69402;BME280;56589;51.992;5.924;2023-04-07T09:48:39;101135.16;;;9.74;78.38
69402;BME280;56589;51.992;5.924;2023-04-07T09:51:07;101142.81;;;9.62;78.72
69402;BME280;56589;51.992;5.924;2023-04-07T09:53:47;101140.63;;;9.54;79.05
69402;BME280;56589;51.992;5.924;2023-04-07T09:56:15;101138.19;;;9.51;78.71
69402;BME280;56589;51.992;5.924;2023-04-07T09:58:44;101134.88;;;9.47;78.70
69402;BME280;56589;51.992;5.924;2023-04-07T10:01:13;101141.75;;;9.50;78.83
69402;BME280;56589;51.992;5.924;2023-04-07T10:03:40;101141.31;;;9.58;78.85
69402;BME280;56589;51.992;5.924;2023-04-07T10:06:06;101135.06;;;9.60;78.93
69402;BME280;56589;51.992;5.924;2023-04-07T10:08:33;101136.81;;;9.60;78.41
69402;BME280;56589;51.992;5.924;2023-04-07T10:11:04;101135.06;;;9.60;78.71
69402;BME280;56589;51.992;5.924;2023-04-07T10:13:31;101136.91;;;9.58;78.75
69402;BME280;56589;51.992;5.924;2023-04-07T10:15:59;101145.38;;;9.63;78.54
69402;BME280;56589;51.992;5.924;2023-04-07T10:18:29;101140.75;;;9.68;78.86
69402;BME280;56589;51.992;5.924;2023-04-07T10:20:56;101143.28;;;9.70;78.47
69402;BME280;56589;51.992;5.924;2023-04-07T10:23:35;101140.47;;;9.73;78.54
69402;BME280;56589;51.992;5.924;2023-04-07T10:26:17;101149.88;;;9.77;78.02
69402;BME280;56589;51.992;5.924;2023-04-07T10:28:47;101156.97;;;9.75;78.05
69402;BME280;56589;51.992;5.924;2023-04-07T10:31:17;101156.47;;;9.68;78.34
69402;BME280;56589;51.992;5.924;2023-04-07T10:33:46;101156.28;;;9.71;78.08
69402;BME280;56589;51.992;5.924;2023-04-07T10:36:13;101148.94;;;9.78;77.84
69402;BME280;56589;51.992;5.924;2023-04-07T10:38:39;101159.00;;;9.86;78.09
69402;BME280;56589;51.992;5.924;2023-04-07T10:41:35;101161.13;;;9.95;77.92
69402;BME280;56589;51.992;5.924;2023-04-07T10:44:02;101160.09;;;9.97;77.76
69402;BME280;56589;51.992;5.924;2023-04-07T10:49:32;101171.38;;;9.99;77.01
69402;BME280;56589;51.992;5.924;2023-04-07T10:52:22;101175.22;;;9.92;77.15
69402;BME280;56589;51.992;5.924;2023-04-07T11:01:16;101180.16;;;9.83;78.15
69402;BME280;56589;51.992;5.924;2023-04-07T11:04:08;101176.25;;;9.90;78.45
69402;BME280;56589;51.992;5.924;2023-04-07T11:06:34;101184.13;;;9.90;78.15
69402;BME280;56589;51.992;5.924;2023-04-07T11:09:00;101183.44;;;9.86;77.83
69402;BME280;56589;51.992;5.924;2023-04-07T11:11:41;101183.72;;;9.82;78.28
69402;BME280;56589;51.992;5.924;2023-04-07T11:14:09;101173.22;;;9.82;78.90
69402;BME280;56589;51.992;5.924;2023-04-07T11:19:10;101186.75;;;9.90;79.05
69402;BME280;56589;51.992;5.924;2023-04-07T11:21:36;101184.88;;;9.92;79.11
69402;BME280;56589;51.992;5.924;2023-04-07T11:24:02;101191.25;;;9.88;78.63
69402;BME280;56589;51.992;5.924;2023-04-07T11:26:28;101191.66;;;9.80;78.55
69402;BME280;56589;51.992;5.924;2023-04-07T11:28:55;101192.91;;;9.73;78.75
69402;BME280;56589;51.992;5.924;2023-04-07T11:31:24;101196.19;;;9.61;78.76
69402;BME280;56589;51.992;5.924;2023-04-07T11:33:53;101200.91;;;9.54;78.94
69402;BME280;56589;51.992;5.924;2023-04-07T11:36:25;101208.13;;;9.51;78.85
69402;BME280;56589;51.992;5.924;2023-04-07T11:38:52;101202.34;;;9.44;79.10
69402;BME280;56589;51.992;5.924;2023-04-07T11:41:18;101197.88;;;9.46;79.37
69402;BME280;56589;51.992;5.924;2023-04-07T11:43:43;101206.16;;;9.54;78.89
69402;BME280;56589;51.992;5.924;2023-04-07T11:46:14;101202.59;;;9.55;79.01
69402;BME280;56589;51.992;5.924;2023-04-07T11:48:44;101208.69;;;9.56;78.94
69402;BME280;56589;51.992;5.924;2023-04-07T11:51:16;101211.25;;;9.57;79.38
69402;BME280;56589;51.992;5.924;2023-04-07T11:53:44;101207.38;;;9.64;79.75
69402;BME280;56589;51.992;5.924;2023-04-07T11:56:13;101213.47;;;9.65;79.75
69402;BME280;56589;51.992;5.924;2023-04-07T11:58:46;101210.97;;;9.62;79.20
69402;BME280;56589;51.992;5.924;2023-04-07T12:01:12;101213.88;;;9.57;79.28
69402;BME280;56589;51.992;5.924;2023-04-07T12:03:56;101225.03;;;9.61;79.97
69402;BME280;56589;51.992;5.924;2023-04-07T12:06:27;101221.09;;;9.69;80.14
69402;BME280;56589;51.992;5.924;2023-04-07T12:08:54;101231.84;;;9.81;79.83
69402;BME280;56589;51.992;5.924;2023-04-07T12:11:22;101231.34;;;9.90;80.08
69402;BME280;56589;51.992;5.924;2023-04-07T12:13:48;101237.78;;;10.00;79.99
69402;BME280;56589;51.992;5.924;2023-04-07T12:16:14;101233.31;;;10.02;79.72
69402;BME280;56589;51.992;5.924;2023-04-07T12:18:39;101230.53;;;10.05;79.77
69402;BME280;56589;51.992;5.924;2023-04-07T12:21:08;101230.94;;;10.13;79.65
69402;BME280;56589;51.992;5.924;2023-04-07T12:23:33;101233.88;;;10.23;79.50
69402;BME280;56589;51.992;5.924;2023-04-07T12:25:59;101238.53;;;10.34;79.34
69402;BME280;56589;51.992;5.924;2023-04-07T12:28:25;101243.56;;;10.38;78.76
69402;BME280;56589;51.992;5.924;2023-04-07T12:30:51;101250.47;;;10.39;78.61
69402;BME280;56589;51.992;5.924;2023-04-07T12:33:17;101247.09;;;10.37;78.68
69402;BME280;56589;51.992;5.924;2023-04-07T12:35:42;101254.19;;;10.35;78.45
69402;BME280;56589;51.992;5.924;2023-04-07T12:38:11;101247.34;;;10.33;78.04
69402;BME280;56589;51.992;5.924;2023-04-07T12:40:37;101255.41;;;10.29;78.05
69402;BME280;56589;51.992;5.924;2023-04-07T12:43:03;101255.66;;;10.25;77.65
69402;BME280;56589;51.992;5.924;2023-04-07T12:45:29;101254.03;;;10.22;77.73
69402;BME280;56589;51.992;5.924;2023-04-07T12:47:55;101259.63;;;10.16;77.79
69402;BME280;56589;51.992;5.924;2023-04-07T12:50:21;101255.22;;;10.17;78.07
69402;BME280;56589;51.992;5.924;2023-04-07T12:52:47;101260.22;;;10.21;78.38
69402;BME280;56589;51.992;5.924;2023-04-07T12:55:16;101254.63;;;10.27;78.17
69402;BME280;56589;51.992;5.924;2023-04-07T12:57:42;101262.16;;;10.34;78.08
69402;BME280;56589;51.992;5.924;2023-04-07T13:00:09;101258.28;;;10.41;78.13
69402;BME280;56589;51.992;5.924;2023-04-07T13:02:35;101264.03;;;10.47;77.90
69402;BME280;56589;51.992;5.924;2023-04-07T13:05:01;101262.09;;;10.51;78.06
69402;BME280;56589;51.992;5.924;2023-04-07T13:07:27;101263.03;;;10.50;77.28
69402;BME280;56589;51.992;5.924;2023-04-07T13:09:53;101264.31;;;10.43;77.42
69402;BME280;56589;51.992;5.924;2023-04-07T13:12:21;101260.84;;;10.42;77.24
69402;BME280;56589;51.992;5.924;2023-04-07T13:14:48;101263.38;;;10.44;77.75